Time;durP1;ratioP1;P1;durP2;ratioP2;P2;SDS_P1;SDS_P2;PMS_P1;PMS_P2;Temp;Humidity;BMP_temperature;BMP_pressure;BME280_temperature;BME280_humidity;BME280_pressure;Samples;Min_cycle;Max_cycle;Signal;HPM_P1;HPM_P2
2023/11/21 00:01:17;;;;;;;11.43;2.00;;;6.60;99.90;;;;;;4882008;29;20262;-83
2023/11/21 00:03:43;;;;;;;8.03;1.87;;;6.60;99.90;;;;;;4881182;29;20108;-83
2023/11/21 00:06:09;;;;;;;10.70;2.90;;;6.60;99.90;;;;;;4877387;29;20109;-83
2023/11/21 00:08:35;;;;;;;9.27;1.87;;;6.60;99.90;;;;;;4878523;29;20093;-84
2023/11/21 00:11:01;;;;;;;10.60;1.90;;;6.60;99.90;;;;;;4877578;29;20073;-84
2023/11/21 00:13:27;;;;;;;9.93;2.83;;;6.60;99.90;;;;;;4876058;29;20489;-83
2023/11/21 00:15:53;;;;;;;12.03;1.80;;;6.60;99.90;;;;;;4876918;29;20041;-83
2023/11/21 00:18:19;;;;;;;5.03;1.73;;;6.60;99.90;;;;;;4876564;29;20029;-83
2023/11/21 00:20:44;;;;;;;9.83;2.17;;;6.60;99.90;;;;;;4877168;29;20037;-83
2023/11/21 00:23:10;;;;;;;4.60;1.10;;;6.60;99.90;;;;;;4877660;29;20084;-83
2023/11/21 00:25:36;;;;;;;5.57;1.30;;;6.70;99.90;;;;;;4876570;29;20057;-83
2023/11/21 00:28:01;;;;;;;6.97;1.30;;;6.70;99.90;;;;;;4877207;29;20033;-83
2023/11/21 00:30:28;;;;;;;5.70;1.37;;;6.70;99.90;;;;;;4876450;29;20029;-83
2023/11/21 00:32:54;;;;;;;3.87;1.17;;;6.70;99.90;;;;;;4875707;29;20043;-83
2023/11/21 00:35:20;;;;;;;2.97;1.00;;;6.70;99.90;;;;;;4875064;29;20021;-83
2023/11/21 00:37:45;;;;;;;7.53;2.10;;;6.80;99.90;;;;;;4875380;29;20037;-83
2023/11/21 00:40:12;;;;;;;5.03;1.30;;;6.90;99.90;;;;;;4875682;29;20119;-83
2023/11/21 00:42:37;;;;;;;5.63;1.60;;;6.80;99.90;;;;;;4875686;29;20037;-83
2023/11/21 00:45:03;;;;;;;4.77;1.23;;;6.90;99.90;;;;;;4875794;29;20133;-83
2023/11/21 00:47:29;;;;;;;4.33;1.60;;;6.90;99.90;;;;;;4875593;29;20056;-82
2023/11/21 00:49:56;;;;;;;7.93;1.90;;;6.90;99.90;;;;;;4876606;29;20122;-83
2023/11/21 00:52:22;;;;;;;5.60;1.40;;;6.90;99.90;;;;;;4875203;29;20081;-83
2023/11/21 00:54:47;;;;;;;9.40;1.80;;;6.80;99.90;;;;;;4874914;29;20033;-84
2023/11/21 00:57:13;;;;;;;9.57;2.23;;;6.80;99.90;;;;;;4875709;29;20105;-83
2023/11/21 00:59:39;;;;;;;6.27;1.40;;;6.80;99.90;;;;;;4876204;29;20032;-83
2023/11/21 01:02:05;;;;;;;6.43;1.40;;;6.80;99.90;;;;;;4874659;29;20033;-83
2023/11/21 01:04:32;;;;;;;5.30;1.40;;;6.70;99.90;;;;;;4874829;29;20132;-83
2023/11/21 01:06:57;;;;;;;9.53;2.43;;;6.70;99.90;;;;;;4873057;29;20037;-83
2023/11/21 01:09:23;;;;;;;6.60;1.50;;;6.70;99.90;;;;;;4873100;29;20062;-83
2023/11/21 01:11:49;;;;;;;6.17;1.50;;;6.60;99.90;;;;;;4873365;29;20080;-83
2023/11/21 01:14:15;;;;;;;5.37;1.43;;;6.60;99.90;;;;;;4874568;29;21339;-82
2023/11/21 01:16:40;;;;;;;6.30;1.60;;;6.50;99.90;;;;;;4873575;29;20037;-83
2023/11/21 01:19:06;;;;;;;5.30;1.50;;;6.50;99.90;;;;;;4876445;29;20108;-83
2023/11/21 01:21:32;;;;;;;8.17;1.47;;;6.40;99.90;;;;;;4875488;29;20040;-83
2023/11/21 01:23:57;;;;;;;5.13;1.40;;;6.40;99.90;;;;;;4879457;29;20037;-83
2023/11/21 01:26:23;;;;;;;6.80;1.70;;;6.40;99.90;;;;;;4877622;29;20077;-83
2023/11/21 01:28:48;;;;;;;9.97;2.47;;;6.40;99.90;;;;;;4878330;29;20033;-83
2023/11/21 01:31:15;;;;;;;5.47;1.53;;;6.40;99.90;;;;;;4878307;29;20072;-83
2023/11/21 01:33:41;;;;;;;8.77;1.83;;;6.30;99.90;;;;;;4878066;29;20166;-83
2023/11/21 01:36:07;;;;;;;6.00;1.47;;;6.30;99.90;;;;;;4878225;29;20037;-83
2023/11/21 01:38:32;;;;;;;9.80;1.60;;;6.20;99.90;;;;;;4877858;29;20085;-83
2023/11/21 01:41:00;;;;;;;8.47;2.20;;;6.20;99.90;;;;;;4878886;29;20049;-83
2023/11/21 01:43:26;;;;;;;7.00;1.87;;;6.20;99.90;;;;;;4877032;29;20029;-83
2023/11/21 01:45:52;;;;;;;7.93;1.40;;;6.20;99.90;;;;;;4878268;29;20057;-83
2023/11/21 01:48:18;;;;;;;6.87;1.50;;;6.20;99.90;;;;;;4877846;29;20043;-83
2023/11/21 01:50:44;;;;;;;6.03;1.40;;;6.30;99.90;;;;;;4878332;29;20037;-83
2023/11/21 01:53:13;;;;;;;7.90;1.83;;;6.20;99.90;;;;;;4876880;29;21452;-83
2023/11/21 01:55:42;;;;;;;9.47;1.77;;;6.20;99.90;;;;;;4877773;29;20033;-83
2023/11/21 01:58:08;;;;;;;6.23;1.53;;;6.30;99.90;;;;;;4881839;29;20037;-83
2023/11/21 02:00:34;;;;;;;11.50;2.07;;;6.20;99.90;;;;;;4882867;29;20061;-82
2023/11/21 02:02:59;;;;;;;6.97;1.77;;;6.30;99.90;;;;;;4890770;29;20040;-83
2023/11/21 02:05:25;;;;;;;6.73;1.80;;;6.30;99.90;;;;;;4883024;29;20128;-83
2023/11/21 02:07:52;;;;;;;6.03;1.30;;;6.30;99.90;;;;;;4877227;29;20029;-83
2023/11/21 02:10:22;;;;;;;5.40;1.67;;;6.40;99.90;;;;;;4876824;29;20032;-83
2023/11/21 02:12:50;;;;;;;8.23;2.93;;;6.50;99.90;;;;;;4879016;29;21010;-83
2023/11/21 02:15:19;;;;;;;5.37;1.37;;;6.60;99.90;;;;;;4878095;29;20036;-83
2023/11/21 02:17:47;;;;;;;7.53;1.80;;;6.60;99.90;;;;;;4876918;29;20025;-83
2023/11/21 02:20:17;;;;;;;6.67;1.43;;;6.70;99.90;;;;;;4877591;29;20036;-83
2023/11/21 02:22:57;;;;;;;7.70;1.67;;;6.70;99.90;;;;;;4878136;29;20033;-83
2023/11/21 02:25:30;;;;;;;3.20;1.13;;;6.70;99.90;;;;;;4876123;29;20079;-83
2023/11/21 02:28:00;;;;;;;3.17;1.10;;;6.70;99.90;;;;;;4878350;29;20048;-83
2023/11/21 02:30:33;;;;;;;6.03;1.30;;;6.70;99.90;;;;;;4878041;29;20025;-83
2023/11/21 02:32:58;;;;;;;4.13;1.10;;;6.70;99.90;;;;;;4878750;29;20033;-84
2023/11/21 02:35:27;;;;;;;4.03;1.20;;;6.70;99.90;;;;;;4877207;29;20047;-84
2023/11/21 02:37:54;;;;;;;2.13;0.90;;;6.70;99.90;;;;;;4876968;29;20032;-83
2023/11/21 02:40:20;;;;;;;5.63;1.10;;;6.70;99.90;;;;;;4876641;29;20033;-83
2023/11/21 02:42:53;;;;;;;5.33;1.20;;;6.60;99.90;;;;;;4875186;29;20564;-84
2023/11/21 02:45:22;;;;;;;4.20;1.10;;;6.60;99.90;;;;;;4876315;29;20060;-83
2023/11/21 02:47:53;;;;;;;5.97;1.43;;;6.60;99.90;;;;;;4876279;29;20025;-83
2023/11/21 02:50:18;;;;;;;5.03;1.10;;;6.60;99.90;;;;;;4876401;29;20068;-83
2023/11/21 02:52:44;;;;;;;4.73;1.13;;;6.60;99.90;;;;;;4876095;29;20029;-83
2023/11/21 02:55:10;;;;;;;3.33;1.10;;;6.50;99.90;;;;;;4875355;29;20036;-83
2023/11/21 02:57:35;;;;;;;8.53;1.47;;;6.50;99.90;;;;;;4877140;29;20742;-83
2023/11/21 03:00:01;;;;;;;5.27;1.30;;;6.50;99.90;;;;;;4875966;29;20036;-83
2023/11/21 03:02:26;;;;;;;6.03;1.37;;;6.50;99.90;;;;;;4875899;29;20303;-83
2023/11/21 03:04:52;;;;;;;4.33;1.17;;;6.40;99.90;;;;;;4877288;29;20037;-83
2023/11/21 03:07:21;;;;;;;8.33;1.57;;;6.40;99.90;;;;;;4876540;29;20021;-83
2023/11/21 03:09:47;;;;;;;3.53;1.30;;;6.40;99.90;;;;;;4877653;29;20044;-84
2023/11/21 03:12:13;;;;;;;5.87;2.30;;;6.40;99.90;;;;;;4877959;29;20048;-83
2023/11/21 03:14:39;;;;;;;7.20;1.53;;;6.50;99.90;;;;;;4878701;29;20049;-83
2023/11/21 03:17:05;;;;;;;3.73;1.20;;;6.40;99.90;;;;;;4878023;29;20033;-83
2023/11/21 03:19:31;;;;;;;5.97;1.50;;;6.40;99.90;;;;;;4876331;29;20025;-83
2023/11/21 03:21:56;;;;;;;5.47;2.43;;;6.40;99.90;;;;;;4878770;29;20056;-83
2023/11/21 03:24:22;;;;;;;2.73;1.20;;;6.40;99.90;;;;;;4880647;29;20940;-82
2023/11/21 03:26:48;;;;;;;5.33;1.30;;;6.40;99.90;;;;;;4873921;29;20446;-82
2023/11/21 03:29:14;;;;;;;4.07;1.23;;;6.40;99.90;;;;;;4872276;29;20059;-84
2023/11/21 03:31:40;;;;;;;7.30;1.50;;;6.40;99.90;;;;;;4872457;29;20607;-84
2023/11/21 03:34:06;;;;;;;3.03;1.40;;;6.40;99.90;;;;;;4870870;29;20033;-83
2023/11/21 03:36:32;;;;;;;6.50;1.50;;;6.50;99.90;;;;;;4872606;29;20033;-83
2023/11/21 03:38:57;;;;;;;3.80;1.37;;;6.40;99.90;;;;;;4874825;29;20801;-83
2023/11/21 03:41:23;;;;;;;8.17;2.13;;;6.50;99.90;;;;;;4875755;29;21455;-83
2023/11/21 03:43:48;;;;;;;7.30;1.57;;;6.40;99.90;;;;;;4875871;29;20671;-83
2023/11/21 03:46:14;;;;;;;4.53;1.43;;;6.40;99.90;;;;;;4874623;29;20044;-84
2023/11/21 03:48:40;;;;;;;6.53;1.43;;;6.40;99.90;;;;;;4874770;29;20025;-84
2023/11/21 03:51:06;;;;;;;5.43;2.50;;;6.40;99.90;;;;;;4875413;29;20776;-83
2023/11/21 03:53:32;;;;;;;4.87;1.77;;;6.40;99.90;;;;;;4874922;29;20040;-83
2023/11/21 03:55:57;;;;;;;5.63;1.40;;;6.50;99.90;;;;;;4874336;29;20036;-83
2023/11/21 03:58:23;;;;;;;6.77;1.37;;;6.50;99.90;;;;;;4875595;29;20045;-83
2023/11/21 04:00:49;;;;;;;4.93;1.47;;;6.50;99.90;;;;;;4873545;29;20021;-83
2023/11/21 04:03:15;;;;;;;6.33;1.30;;;6.50;99.90;;;;;;4874492;29;20032;-83
2023/11/21 04:05:41;;;;;;;5.00;1.33;;;6.50;99.90;;;;;;4873590;29;20044;-83
2023/11/21 04:08:07;;;;;;;6.57;1.53;;;6.50;99.90;;;;;;4872990;29;20037;-83
2023/11/21 04:10:32;;;;;;;5.37;1.30;;;6.50;99.90;;;;;;4875431;29;20618;-82
2023/11/21 04:12:58;;;;;;;6.80;1.70;;;6.50;99.90;;;;;;4876364;29;20040;-83
2023/11/21 04:15:24;;;;;;;6.03;1.43;;;6.60;99.90;;;;;;4878275;29;20044;-83
2023/11/21 04:17:49;;;;;;;3.93;1.27;;;6.60;99.90;;;;;;4878119;29;20025;-83
2023/11/21 04:20:15;;;;;;;6.53;1.37;;;6.70;99.90;;;;;;4877939;29;20096;-83
2023/11/21 04:22:43;;;;;;;8.33;1.40;;;6.70;99.90;;;;;;4878745;29;20033;-83
2023/11/21 04:25:11;;;;;;;3.07;1.20;;;6.70;99.90;;;;;;4877274;29;20029;-83
2023/11/21 04:27:36;;;;;;;4.17;1.00;;;6.70;99.90;;;;;;4877745;29;20033;-83
2023/11/21 04:30:02;;;;;;;4.90;1.73;;;6.80;99.90;;;;;;4879994;29;20025;-83
2023/11/21 04:32:28;;;;;;;4.13;1.20;;;6.80;99.90;;;;;;4878602;29;20474;-83
2023/11/21 04:34:53;;;;;;;3.87;1.20;;;6.80;99.90;;;;;;4878277;29;20017;-83
2023/11/21 04:37:19;;;;;;;3.53;1.10;;;6.80;99.90;;;;;;4877154;29;21462;-82
2023/11/21 04:39:44;;;;;;;4.40;1.40;;;6.90;99.90;;;;;;4878900;29;20025;-83
2023/11/21 04:42:10;;;;;;;3.90;1.47;;;6.90;99.90;;;;;;4878910;29;20025;-83
2023/11/21 04:44:35;;;;;;;5.43;1.20;;;6.90;99.90;;;;;;4878390;29;20041;-83
2023/11/21 04:47:01;;;;;;;3.20;1.17;;;6.80;99.90;;;;;;4879294;29;20070;-83
2023/11/21 04:49:27;;;;;;;4.40;1.10;;;6.80;99.90;;;;;;4878402;29;20121;-83
2023/11/21 04:51:52;;;;;;;5.40;1.10;;;6.80;99.90;;;;;;4878482;29;20064;-83
2023/11/21 04:54:19;;;;;;;3.87;1.10;;;6.80;99.90;;;;;;4878754;29;20067;-83
2023/11/21 04:56:44;;;;;;;3.30;1.10;;;6.70;99.90;;;;;;4878736;29;20021;-83
2023/11/21 04:59:10;;;;;;;2.83;1.20;;;6.70;99.90;;;;;;4891154;29;20070;-83
2023/11/21 05:01:36;;;;;;;4.27;1.20;;;6.70;99.90;;;;;;4891431;29;20052;-82
2023/11/21 05:04:02;;;;;;;3.83;1.00;;;6.70;99.90;;;;;;4880152;29;20040;-83
2023/11/21 05:06:27;;;;;;;3.03;1.10;;;6.70;99.90;;;;;;4875586;29;20108;-83
2023/11/21 05:08:53;;;;;;;2.03;1.00;;;6.70;99.90;;;;;;4873903;29;21365;-82
2023/11/21 05:11:29;;;;;;;3.10;1.00;;;6.60;99.90;;;;;;4874231;29;20044;-83
2023/11/21 05:13:58;;;;;;;6.03;1.40;;;6.60;99.90;;;;;;4875229;29;20033;-83
2023/11/21 05:16:27;;;;;;;7.07;1.43;;;6.60;99.90;;;;;;4874245;29;20044;-83
2023/11/21 05:18:53;;;;;;;1.90;1.10;;;6.50;99.90;;;;;;4874995;29;20037;-83
2023/11/21 05:21:20;;;;;;;2.53;1.00;;;6.40;99.90;;;;;;4875518;29;20044;-83
2023/11/21 05:23:46;;;;;;;5.67;1.20;;;6.40;99.90;;;;;;4873752;29;20037;-82
2023/11/21 05:26:11;;;;;;;9.70;1.57;;;6.40;99.90;;;;;;4873442;29;20092;-83
2023/11/21 05:28:37;;;;;;;5.57;1.20;;;6.40;99.90;;;;;;4873728;29;20059;-83
2023/11/21 05:31:02;;;;;;;2.23;1.30;;;6.30;99.90;;;;;;4874200;29;20033;-82
2023/11/21 05:33:28;;;;;;;3.10;1.07;;;6.30;99.90;;;;;;4875408;29;20033;-83
2023/11/21 05:35:53;;;;;;;2.97;1.00;;;6.30;99.90;;;;;;4873799;29;20057;-84
2023/11/21 05:38:21;;;;;;;2.13;0.90;;;6.30;99.90;;;;;;4874070;29;20113;-83
2023/11/21 05:40:47;;;;;;;3.37;1.73;;;6.30;99.90;;;;;;4873997;29;20033;-82
2023/11/21 05:43:13;;;;;;;5.47;1.43;;;6.20;99.90;;;;;;4873703;29;20025;-83
2023/11/21 05:45:38;;;;;;;2.10;1.00;;;6.20;99.90;;;;;;4873586;29;20091;-82
2023/11/21 05:48:06;;;;;;;1.80;0.90;;;6.20;99.90;;;;;;4873487;29;20460;-83
2023/11/21 05:50:32;;;;;;;3.97;1.30;;;6.20;99.90;;;;;;4874210;29;20041;-83
2023/11/21 05:52:59;;;;;;;6.83;1.53;;;6.20;99.90;;;;;;4872930;29;20036;-83
2023/11/21 05:55:25;;;;;;;3.63;1.00;;;6.10;99.90;;;;;;4875343;29;20029;-83
2023/11/21 05:57:51;;;;;;;2.57;1.10;;;6.20;99.90;;;;;;4873677;29;20116;-82
2023/11/21 06:00:25;;;;;;;2.90;1.10;;;6.10;99.90;;;;;;4873470;29;20025;-82
2023/11/21 06:02:53;;;;;;;3.63;1.10;;;6.10;99.90;;;;;;4871785;29;20049;-82
2023/11/21 06:05:20;;;;;;;2.47;1.00;;;6.10;99.90;;;;;;4874514;29;20143;-82
2023/11/21 06:07:46;;;;;;;3.10;1.10;;;6.10;99.90;;;;;;4876367;29;20041;-82
2023/11/21 06:10:14;;;;;;;3.50;1.00;;;6.10;99.90;;;;;;4874399;29;20029;-83
2023/11/21 06:12:40;;;;;;;3.73;0.90;;;6.10;99.90;;;;;;4876299;29;20064;-82
2023/11/21 06:15:09;;;;;;;4.63;1.00;;;6.10;99.90;;;;;;4875458;29;20021;-82
2023/11/21 06:17:38;;;;;;;2.10;0.90;;;6.20;99.90;;;;;;4874519;29;20036;-83
2023/11/21 06:20:13;;;;;;;1.93;0.90;;;6.10;99.90;;;;;;4874868;29;20039;-83
2023/11/21 06:22:40;;;;;;;3.03;1.00;;;6.20;99.90;;;;;;4875750;29;20039;-83
2023/11/21 06:25:07;;;;;;;1.10;0.70;;;6.10;99.90;;;;;;4871957;29;20044;-82
2023/11/21 06:27:34;;;;;;;1.63;0.70;;;6.10;99.90;;;;;;4875239;29;20781;-82
2023/11/21 06:29:59;;;;;;;2.87;1.07;;;6.20;99.90;;;;;;4875302;29;20021;-82
2023/11/21 06:32:25;;;;;;;2.00;0.80;;;6.20;99.90;;;;;;4877443;29;20029;-82
2023/11/21 06:34:54;;;;;;;1.80;0.80;;;6.20;99.90;;;;;;4879474;29;20143;-82
2023/11/21 06:37:21;;;;;;;2.43;0.63;;;6.20;99.90;;;;;;4875977;29;20113;-82
2023/11/21 06:39:46;;;;;;;1.57;0.80;;;6.20;99.90;;;;;;4878042;29;20029;-83
2023/11/21 06:42:12;;;;;;;2.57;1.00;;;6.20;99.90;;;;;;4878227;29;20025;-82
2023/11/21 06:44:39;;;;;;;1.70;0.73;;;6.20;99.90;;;;;;4880736;29;20032;-82
2023/11/21 06:47:04;;;;;;;1.70;0.90;;;6.20;99.90;;;;;;4878738;29;20049;-82
2023/11/21 06:49:31;;;;;;;3.10;1.00;;;6.20;99.90;;;;;;4876031;29;20226;-82
2023/11/21 06:51:57;;;;;;;3.00;1.00;;;6.20;99.90;;;;;;4875976;29;20035;-82
2023/11/21 06:54:23;;;;;;;1.10;0.80;;;6.20;99.90;;;;;;4874561;29;20043;-82
2023/11/21 06:56:48;;;;;;;2.10;0.80;;;6.30;99.90;;;;;;4873767;29;20029;-82
2023/11/21 06:59:14;;;;;;;2.87;1.67;;;6.30;99.90;;;;;;4872858;29;20156;-81
2023/11/21 07:01:41;;;;;;;1.17;0.87;;;6.30;99.90;;;;;;4870376;29;20037;-81
2023/11/21 07:04:07;;;;;;;1.17;0.80;;;6.30;99.90;;;;;;4869907;29;20167;-81
2023/11/21 07:06:33;;;;;;;0.90;0.80;;;6.30;99.90;;;;;;4868458;29;20029;-81
2023/11/21 07:08:58;;;;;;;2.13;0.90;;;6.40;99.90;;;;;;4871615;29;20081;-80
2023/11/21 07:11:25;;;;;;;1.97;0.90;;;6.40;99.90;;;;;;4869147;29;20025;-80
2023/11/21 07:13:50;;;;;;;2.57;1.00;;;6.40;99.90;;;;;;4869958;29;20092;-81
2023/11/21 07:16:16;;;;;;;2.00;0.83;;;6.40;99.90;;;;;;4870504;29;20120;-81
2023/11/21 07:18:42;;;;;;;3.53;0.90;;;6.40;99.90;;;;;;4867996;29;20096;-81
2023/11/21 07:21:08;;;;;;;2.93;1.07;;;6.50;99.90;;;;;;4868403;29;20076;-81
2023/11/21 07:23:34;;;;;;;1.43;1.00;;;6.40;99.90;;;;;;4868886;29;20065;-81
2023/11/21 07:25:59;;;;;;;6.27;2.00;;;6.50;99.90;;;;;;4868656;29;20029;-81
2023/11/21 07:28:25;;;;;;;2.37;0.93;;;6.50;99.90;;;;;;4860188;29;20088;-81
2023/11/21 07:30:51;;;;;;;1.63;1.00;;;6.50;99.90;;;;;;4858225;29;20029;-81
2023/11/21 07:33:17;;;;;;;1.33;1.10;;;6.50;99.90;;;;;;4862984;29;20117;-81
2023/11/21 07:35:43;;;;;;;2.67;1.00;;;6.60;99.90;;;;;;4866264;29;20124;-81
2023/11/21 07:38:08;;;;;;;2.93;1.00;;;6.60;99.90;;;;;;4865251;29;20041;-81
2023/11/21 07:40:34;;;;;;;1.20;0.80;;;6.60;99.90;;;;;;4865865;29;20025;-81
2023/11/21 07:43:00;;;;;;;2.57;0.90;;;6.60;99.90;;;;;;4859027;29;20109;-81
2023/11/21 07:45:27;;;;;;;2.53;0.80;;;6.60;99.90;;;;;;4863502;29;20045;-82
2023/11/21 07:47:54;;;;;;;3.87;1.40;;;6.60;99.90;;;;;;4866603;29;20032;-80
2023/11/21 07:50:20;;;;;;;1.53;0.87;;;6.70;99.90;;;;;;4868190;29;20483;-80
2023/11/21 07:52:46;;;;;;;2.43;0.90;;;6.70;99.90;;;;;;4867211;29;20041;-80
2023/11/21 07:55:11;;;;;;;1.53;0.80;;;6.70;99.90;;;;;;4877417;29;20029;-80
2023/11/21 07:57:37;;;;;;;3.63;1.00;;;6.70;99.90;;;;;;4874581;29;20112;-80
2023/11/21 08:00:08;;;;;;;2.40;1.00;;;6.70;99.90;;;;;;4868976;29;20033;-80
2023/11/21 08:02:34;;;;;;;3.07;1.03;;;6.70;99.90;;;;;;4863732;29;20136;-81
2023/11/21 08:05:00;;;;;;;3.00;1.00;;;6.70;99.90;;;;;;4864875;29;20041;-80
2023/11/21 08:07:26;;;;;;;2.10;0.90;;;6.80;99.90;;;;;;4864390;29;20033;-81
2023/11/21 08:09:52;;;;;;;3.00;0.90;;;6.70;99.90;;;;;;4865451;29;20032;-80
2023/11/21 08:12:20;;;;;;;3.27;1.00;;;6.70;99.90;;;;;;4866719;29;20484;-80
2023/11/21 08:14:45;;;;;;;2.57;0.80;;;6.70;99.90;;;;;;4867043;29;20044;-81
2023/11/21 08:17:11;;;;;;;2.43;1.00;;;6.70;99.90;;;;;;4866169;29;20060;-80
2023/11/21 08:19:37;;;;;;;2.07;1.00;;;6.70;99.90;;;;;;4866840;29;20734;-80
2023/11/21 08:22:03;;;;;;;4.30;1.10;;;6.70;99.90;;;;;;4865747;29;20097;-81
2023/11/21 08:24:29;;;;;;;2.83;1.00;;;6.60;99.90;;;;;;4865935;29;20020;-81
2023/11/21 08:26:56;;;;;;;3.50;1.10;;;6.70;99.90;;;;;;4866944;29;20475;-81
2023/11/21 08:29:23;;;;;;;5.33;1.20;;;6.70;99.90;;;;;;4867500;29;21092;-81
2023/11/21 08:31:48;;;;;;;2.30;0.90;;;6.70;99.90;;;;;;4865578;29;20039;-81
2023/11/21 08:34:15;;;;;;;3.17;0.83;;;6.70;99.90;;;;;;4865679;29;20599;-80
2023/11/21 08:36:43;;;;;;;3.70;1.10;;;6.80;99.90;;;;;;4868150;29;20037;-80
2023/11/21 08:39:13;;;;;;;2.83;1.03;;;6.90;99.90;;;;;;4868503;29;20052;-80
2023/11/21 08:41:38;;;;;;;3.30;1.20;;;6.90;99.90;;;;;;4868175;29;20041;-81
2023/11/21 08:44:07;;;;;;;3.17;1.10;;;6.90;99.90;;;;;;4864712;29;20029;-80
2023/11/21 08:46:34;;;;;;;3.63;1.20;;;7.00;99.90;;;;;;4864997;29;20068;-80
2023/11/21 08:49:01;;;;;;;3.00;1.33;;;7.10;99.90;;;;;;4864800;29;20069;-81
2023/11/21 08:51:26;;;;;;;3.03;1.00;;;7.20;99.90;;;;;;4865740;29;20817;-81
2023/11/21 08:53:52;;;;;;;2.43;1.13;;;7.20;99.90;;;;;;4866640;29;20045;-80
2023/11/21 08:56:19;;;;;;;6.27;1.20;;;7.30;99.90;;;;;;4865005;29;20044;-80
2023/11/21 08:58:46;;;;;;;3.70;1.20;;;7.30;99.90;;;;;;4865868;29;20032;-80
2023/11/21 09:01:12;;;;;;;2.70;1.10;;;7.30;99.90;;;;;;4865429;29;20041;-80
2023/11/21 09:03:38;;;;;;;6.57;1.20;;;7.40;99.90;;;;;;4867062;29;20061;-80
2023/11/21 09:06:04;;;;;;;2.30;1.30;;;7.40;99.90;;;;;;4865460;29;20067;-80
2023/11/21 09:08:30;;;;;;;2.87;1.00;;;7.60;99.90;;;;;;4867640;29;20033;-80
2023/11/21 09:10:55;;;;;;;6.10;1.40;;;7.70;99.90;;;;;;4865038;29;20123;-81
2023/11/21 09:13:21;;;;;;;4.03;1.30;;;7.80;99.90;;;;;;4864264;29;20037;-81
2023/11/21 09:15:47;;;;;;;4.13;1.13;;;7.80;99.90;;;;;;4868796;29;20036;-81
2023/11/21 09:18:14;;;;;;;3.73;1.30;;;7.90;99.90;;;;;;4866947;29;20131;-80
2023/11/21 09:20:39;;;;;;;7.70;1.30;;;7.90;99.90;;;;;;4866224;29;20034;-80
2023/11/21 09:23:05;;;;;;;5.10;1.40;;;8.00;99.90;;;;;;4865565;29;20044;-80
2023/11/21 09:25:30;;;;;;;3.97;1.40;;;8.00;99.90;;;;;;4864519;29;20044;-81
2023/11/21 09:27:57;;;;;;;2.83;1.10;;;8.00;99.90;;;;;;4864366;29;20030;-81
2023/11/21 09:30:24;;;;;;;4.93;1.70;;;8.10;99.90;;;;;;4865604;29;20039;-81
2023/11/21 09:32:50;;;;;;;4.60;1.00;;;8.10;99.90;;;;;;4861933;29;20021;-80
2023/11/21 09:35:17;;;;;;;7.10;2.20;;;8.10;99.90;;;;;;4861021;29;20035;-80
2023/11/21 09:37:46;;;;;;;7.47;2.13;;;8.20;99.90;;;;;;4865280;29;20126;-80
2023/11/21 09:40:13;;;;;;;3.30;1.20;;;8.20;99.90;;;;;;4864415;29;20029;-80
2023/11/21 09:42:43;;;;;;;4.17;1.50;;;8.20;99.90;;;;;;4864327;29;20144;-80
2023/11/21 09:45:40;;;;;;;4.53;1.50;;;8.30;99.90;;;;;;4865177;29;20107;-80
2023/11/21 09:48:07;;;;;;;3.83;1.10;;;8.30;99.90;;;;;;4867139;29;20045;-80
2023/11/21 09:50:33;;;;;;;2.73;1.40;;;8.30;99.90;;;;;;4870667;29;20690;-80
2023/11/21 09:53:20;;;;;;;5.87;1.60;;;8.30;99.90;;;;;;4871937;29;20065;-80
2023/11/21 09:55:49;;;;;;;5.43;1.57;;;8.40;99.90;;;;;;4873111;29;20033;-81
2023/11/21 09:58:14;;;;;;;4.13;1.27;;;8.40;99.90;;;;;;4872652;29;20108;-80
2023/11/21 10:00:45;;;;;;;4.07;1.10;;;8.40;99.90;;;;;;4869623;29;20035;-79
2023/11/21 10:03:12;;;;;;;3.47;1.43;;;8.40;99.90;;;;;;4873910;29;20037;-79
2023/11/21 10:05:39;;;;;;;3.23;1.30;;;8.40;99.90;;;;;;4874850;29;20056;-80
2023/11/21 10:08:09;;;;;;;7.20;2.27;;;8.40;99.90;;;;;;4873959;29;20109;-80
2023/11/21 10:10:36;;;;;;;6.60;1.80;;;8.50;99.90;;;;;;4872607;29;20037;-80
2023/11/21 10:13:06;;;;;;;1.67;1.03;;;8.50;99.90;;;;;;4870561;29;20176;-80
2023/11/21 10:15:34;;;;;;;6.13;1.90;;;8.50;99.90;;;;;;4871915;29;20060;-80
2023/11/21 10:18:02;;;;;;;2.73;1.00;;;8.40;99.90;;;;;;4870625;29;21431;-80
2023/11/21 10:20:29;;;;;;;3.40;1.40;;;8.50;99.90;;;;;;4872297;29;20033;-80
2023/11/21 10:22:56;;;;;;;4.10;1.27;;;8.50;99.90;;;;;;4872881;29;20029;-80
2023/11/21 10:25:22;;;;;;;4.77;1.33;;;8.70;99.90;;;;;;4871997;29;20184;-79
2023/11/21 10:27:51;;;;;;;2.90;1.40;;;8.70;99.90;;;;;;4871413;29;20666;-80
2023/11/21 10:30:18;;;;;;;3.27;1.33;;;8.70;99.90;;;;;;4873402;29;20028;-79
2023/11/21 10:32:43;;;;;;;3.13;1.43;;;8.70;99.90;;;;;;4870292;29;20025;-78
2023/11/21 10:35:10;;;;;;;2.23;1.37;;;8.80;99.90;;;;;;4868846;29;20320;-79
2023/11/21 10:37:39;;;;;;;5.03;1.30;;;8.70;99.90;;;;;;4868256;29;20709;-78
2023/11/21 10:40:12;;;;;;;5.80;1.63;;;8.80;99.90;;;;;;4865182;29;20025;-78
2023/11/21 10:42:39;;;;;;;5.73;1.40;;;8.70;99.90;;;;;;4865408;29;20048;-78
2023/11/21 10:45:11;;;;;;;3.70;1.30;;;8.80;99.90;;;;;;4863723;29;20033;-78
2023/11/21 10:47:42;;;;;;;6.00;1.20;;;8.80;99.90;;;;;;4866779;29;20029;-79
2023/11/21 10:50:11;;;;;;;2.97;1.10;;;8.80;99.90;;;;;;4875385;29;20064;-78
2023/11/21 10:52:47;;;;;;;2.50;1.47;;;8.70;99.90;;;;;;4871979;29;20548;-78
2023/11/21 10:55:21;;;;;;;3.23;1.20;;;8.90;99.90;;;;;;4868519;29;20029;-79
2023/11/21 10:57:52;;;;;;;2.50;1.20;;;9.00;99.90;;;;;;4866762;29;20576;-79
2023/11/21 11:00:21;;;;;;;4.63;1.40;;;9.00;99.90;;;;;;4867769;29;20493;-79
2023/11/21 11:02:52;;;;;;;4.77;1.30;;;9.00;99.90;;;;;;4866372;29;20040;-79
2023/11/21 11:05:20;;;;;;;3.03;1.30;;;9.10;99.90;;;;;;4865421;29;20047;-79
2023/11/21 11:07:52;;;;;;;5.23;1.50;;;9.10;99.90;;;;;;4869227;29;20029;-79
2023/11/21 11:10:20;;;;;;;4.50;1.43;;;9.10;99.90;;;;;;4866912;29;20029;-79
2023/11/21 11:12:47;;;;;;;4.90;1.30;;;9.20;99.90;;;;;;4867064;29;20073;-79
2023/11/21 11:15:14;;;;;;;8.87;2.00;;;9.20;99.90;;;;;;4865635;29;20063;-79
2023/11/21 11:17:40;;;;;;;4.43;1.40;;;9.20;99.90;;;;;;4867204;29;20183;-79
2023/11/21 11:20:09;;;;;;;4.00;1.53;;;9.20;99.90;;;;;;4865150;29;20033;-76
2023/11/21 11:22:50;;;;;;;5.10;1.60;;;9.30;99.90;;;;;;4861216;29;20682;-75
2023/11/21 11:25:39;;;;;;;3.47;1.30;;;9.30;99.90;;;;;;4862538;29;20180;-76
2023/11/21 11:28:11;;;;;;;2.97;1.20;;;9.40;99.90;;;;;;4863272;29;20037;-76
2023/11/21 11:30:52;;;;;;;2.53;1.00;;;9.40;99.90;;;;;;4863411;29;20489;-75
2023/11/21 11:33:25;;;;;;;6.67;1.40;;;9.50;99.90;;;;;;4863474;29;20519;-75
2023/11/21 11:36:22;;;;;;;3.73;1.40;;;9.50;99.90;;;;;;4865004;29;20100;-76
2023/11/21 11:38:51;;;;;;;2.50;1.30;;;9.60;99.90;;;;;;4863125;29;20069;-86
2023/11/21 11:41:30;;;;;;;2.33;1.10;;;9.60;99.90;;;;;;4869698;29;20044;-78
2023/11/21 11:43:56;;;;;;;3.03;1.17;;;9.70;99.90;;;;;;4871268;29;20116;-81
2023/11/21 11:46:41;;;;;;;2.13;1.10;;;9.70;99.90;;;;;;4869142;29;20084;-83
2023/11/21 11:49:07;;;;;;;2.65;1.00;;;9.80;99.90;;;;;;4863816;29;20045;-86
2023/11/21 11:51:35;;;;;;;2.40;1.10;;;9.80;99.90;;;;;;4865478;29;20142;-86
2023/11/21 11:54:01;;;;;;;2.27;1.00;;;9.80;99.90;;;;;;4863908;29;20029;-86
2023/11/21 11:56:35;;;;;;;4.90;1.00;;;9.80;99.90;;;;;;4864204;29;20037;-86
2023/11/21 11:59:04;;;;;;;2.90;1.23;;;9.70;99.90;;;;;;4864670;29;20036;-86
2023/11/21 12:01:33;;;;;;;1.33;0.83;;;9.60;99.90;;;;;;4866584;29;20119;-85
2023/11/21 12:04:14;;;;;;;2.27;0.93;;;9.70;99.90;;;;;;4865233;29;20033;-86
2023/11/21 12:06:41;;;;;;;2.30;1.10;;;9.50;99.90;;;;;;4863087;29;21555;-85
2023/11/21 12:09:07;;;;;;;4.27;1.30;;;9.50;99.90;;;;;;4861224;29;20147;-85
2023/11/21 12:11:33;;;;;;;2.50;1.20;;;9.50;99.90;;;;;;4863547;29;20177;-86
2023/11/21 12:13:59;;;;;;;1.67;0.80;;;9.40;99.90;;;;;;4863943;29;20051;-86
2023/11/21 12:16:27;;;;;;;4.13;1.33;;;9.40;99.90;;;;;;4864540;29;20068;-85
2023/11/21 12:18:53;;;;;;;2.50;1.00;;;9.50;99.90;;;;;;4865272;29;20025;-86
2023/11/21 12:21:20;;;;;;;3.90;1.10;;;9.50;99.90;;;;;;4865047;29;20085;-86
2023/11/21 12:23:47;;;;;;;2.27;1.10;;;9.40;99.90;;;;;;4865373;29;20768;-86
2023/11/21 12:26:13;;;;;;;2.33;1.20;;;9.30;99.90;;;;;;4865739;29;20033;-86
2023/11/21 12:28:39;;;;;;;3.67;1.30;;;9.30;99.90;;;;;;4865350;29;20131;-86
2023/11/21 12:31:06;;;;;;;2.80;1.00;;;9.30;99.90;;;;;;4863585;29;20021;-86
2023/11/21 12:33:35;;;;;;;4.10;1.20;;;9.30;99.90;;;;;;4867927;29;20167;-86
2023/11/21 12:36:01;;;;;;;2.13;1.10;;;9.20;99.90;;;;;;4868116;29;20025;-86
2023/11/21 12:38:35;;;;;;;4.93;1.70;;;9.20;99.90;;;;;;4871423;29;20025;-82
2023/11/21 12:41:00;;;;;;;4.83;1.20;;;9.30;99.90;;;;;;4871453;29;20025;-83
2023/11/21 12:43:26;;;;;;;2.73;1.17;;;9.30;99.90;;;;;;4873135;29;20036;-83
2023/11/21 12:46:11;;;;;;;3.07;1.20;;;9.30;99.90;;;;;;4872719;29;20041;-83
2023/11/21 12:48:46;;;;;;;2.70;1.05;;;9.30;99.90;;;;;;4872192;29;20033;-82
2023/11/21 12:51:15;;;;;;;3.33;1.10;;;9.40;99.90;;;;;;4872748;29;20037;-83
2023/11/21 12:53:42;;;;;;;2.33;1.10;;;9.50;99.90;;;;;;4872206;29;20035;-82
2023/11/21 12:56:11;;;;;;;2.40;1.03;;;9.50;99.90;;;;;;4871453;29;20160;-83
2023/11/21 12:58:44;;;;;;;1.60;1.03;;;9.50;99.90;;;;;;4873200;29;21073;-83